sensor_id;sensor_type;location;lat;lon;timestamp;temperature;humidity
11925;DHT22;6022;48.768;18.608;2023-02-01T00:01:06;2.20;99.90
11925;DHT22;6022;48.768;18.608;2023-02-01T00:03:34;2.40;99.90
11925;DHT22;6022;48.768;18.608;2023-02-01T00:06:02;3.20;99.90
11925;DHT22;6022;48.768;18.608;2023-02-01T00:08:29;2.20;99.90
11925;DHT22;6022;48.768;18.608;2023-02-01T00:11:05;2.20;99.90
11925;DHT22;6022;48.768;18.608;2023-02-01T00:13:36;2.20;99.90
11925;DHT22;6022;48.768;18.608;2023-02-01T00:16:13;2.20;99.90
11925;DHT22;6022;48.768;18.608;2023-02-01T00:18:47;2.00;99.90
11925;DHT22;6022;48.768;18.608;2023-02-01T00:21:20;2.10;99.90
11925;DHT22;6022;48.768;18.608;2023-02-01T00:23:48;1.80;99.90
11925;DHT22;6022;48.768;18.608;2023-02-01T00:26:18;2.10;99.90
11925;DHT22;6022;48.768;18.608;2023-02-01T00:29:05;2.10;99.90
11925;DHT22;6022;48.768;18.608;2023-02-01T00:31:33;2.20;99.90
11925;DHT22;6022;48.768;18.608;2023-02-01T00:34:01;2.00;99.90
11925;DHT22;6022;48.768;18.608;2023-02-01T00:36:28;2.20;99.90
11925;DHT22;6022;48.768;18.608;2023-02-01T00:38:56;2.20;99.90
11925;DHT22;6022;48.768;18.608;2023-02-01T00:41:23;2.20;99.90
11925;DHT22;6022;48.768;18.608;2023-02-01T00:43:50;2.30;99.90
11925;DHT22;6022;48.768;18.608;2023-02-01T00:46:19;2.30;99.90
11925;DHT22;6022;48.768;18.608;2023-02-01T00:48:47;2.40;99.90
11925;DHT22;6022;48.768;18.608;2023-02-01T00:51:17;2.90;99.90
11925;DHT22;6022;48.768;18.608;2023-02-01T00:53:46;2.20;99.90
11925;DHT22;6022;48.768;18.608;2023-02-01T00:56:14;2.40;99.90
11925;DHT22;6022;48.768;18.608;2023-02-01T00:58:41;2.40;99.90
11925;DHT22;6022;48.768;18.608;2023-02-01T01:01:15;2.70;99.90
11925;DHT22;6022;48.768;18.608;2023-02-01T01:03:48;2.40;99.90
11925;DHT22;6022;48.768;18.608;2023-02-01T01:06:21;2.40;99.90
11925;DHT22;6022;48.768;18.608;2023-02-01T01:08:51;2.30;99.90
11925;DHT22;6022;48.768;18.608;2023-02-01T01:11:26;2.40;99.90
11925;DHT22;6022;48.768;18.608;2023-02-01T01:13:56;2.40;99.90
11925;DHT22;6022;48.768;18.608;2023-02-01T01:16:26;2.40;99.90
11925;DHT22;6022;48.768;18.608;2023-02-01T01:18:55;2.40;99.90
11925;DHT22;6022;48.768;18.608;2023-02-01T01:21:24;2.50;99.90
11925;DHT22;6022;48.768;18.608;2023-02-01T01:23:52;2.60;99.90
11925;DHT22;6022;48.768;18.608;2023-02-01T01:26:23;2.40;99.90
11925;DHT22;6022;48.768;18.608;2023-02-01T01:28:54;2.30;99.90
11925;DHT22;6022;48.768;18.608;2023-02-01T01:31:22;2.60;99.90
11925;DHT22;6022;48.768;18.608;2023-02-01T01:33:52;2.70;99.90
11925;DHT22;6022;48.768;18.608;2023-02-01T01:36:22;2.70;99.90
11925;DHT22;6022;48.768;18.608;2023-02-01T01:38:50;2.30;99.90
11925;DHT22;6022;48.768;18.608;2023-02-01T01:41:30;2.50;99.90
11925;DHT22;6022;48.768;18.608;2023-02-01T01:43:59;2.80;99.90
11925;DHT22;6022;48.768;18.608;2023-02-01T01:46:34;2.40;99.90
11925;DHT22;6022;48.768;18.608;2023-02-01T01:51:55;2.50;99.90
11925;DHT22;6022;48.768;18.608;2023-02-01T01:54:38;2.50;99.90
11925;DHT22;6022;48.768;18.608;2023-02-01T01:57:20;2.70;99.90
11925;DHT22;6022;48.768;18.608;2023-02-01T02:00:19;2.70;99.90
11925;DHT22;6022;48.768;18.608;2023-02-01T02:03:03;2.40;99.90
11925;DHT22;6022;48.768;18.608;2023-02-01T02:05:38;2.70;99.90
11925;DHT22;6022;48.768;18.608;2023-02-01T02:08:05;2.30;99.90
11925;DHT22;6022;48.768;18.608;2023-02-01T02:10:32;2.60;99.90
11925;DHT22;6022;48.768;18.608;2023-02-01T02:13:19;2.80;99.90
11925;DHT22;6022;48.768;18.608;2023-02-01T02:34:22;3.00;99.90
11925;DHT22;6022;48.768;18.608;2023-02-01T02:37:01;3.10;99.90
11925;DHT22;6022;48.768;18.608;2023-02-01T02:49:46;2.70;99.90
11925;DHT22;6022;48.768;18.608;2023-02-01T02:52:44;3.00;99.90
11925;DHT22;6022;48.768;18.608;2023-02-01T02:55:37;3.30;99.90
11925;DHT22;6022;48.768;18.608;2023-02-01T02:58:07;3.00;99.90
11925;DHT22;6022;48.768;18.608;2023-02-01T03:00:56;3.10;99.90
11925;DHT22;6022;48.768;18.608;2023-02-01T03:03:43;3.00;99.90
11925;DHT22;6022;48.768;18.608;2023-02-01T03:06:37;3.00;99.90
11925;DHT22;6022;48.768;18.608;2023-02-01T03:09:08;2.90;99.90
11925;DHT22;6022;48.768;18.608;2023-02-01T03:11:47;3.00;99.90
11925;DHT22;6022;48.768;18.608;2023-02-01T03:14:38;2.90;99.90
11925;DHT22;6022;48.768;18.608;2023-02-01T03:17:14;2.90;99.90
11925;DHT22;6022;48.768;18.608;2023-02-01T03:19:48;2.90;99.90
11925;DHT22;6022;48.768;18.608;2023-02-01T03:22:22;3.00;99.90
11925;DHT22;6022;48.768;18.608;2023-02-01T03:24:55;3.10;99.90
11925;DHT22;6022;48.768;18.608;2023-02-01T03:27:36;2.80;99.90
11925;DHT22;6022;48.768;18.608;2023-02-01T03:30:25;3.00;99.90
11925;DHT22;6022;48.768;18.608;2023-02-01T03:32:57;3.00;99.90
11925;DHT22;6022;48.768;18.608;2023-02-01T03:41:53;3.10;99.90
11925;DHT22;6022;48.768;18.608;2023-02-01T03:47:23;2.90;99.90
11925;DHT22;6022;48.768;18.608;2023-02-01T03:50:00;3.00;99.90
11925;DHT22;6022;48.768;18.608;2023-02-01T03:52:37;2.90;99.90
11925;DHT22;6022;48.768;18.608;2023-02-01T03:55:13;3.00;99.90
11925;DHT22;6022;48.768;18.608;2023-02-01T03:58:06;2.80;99.90
11925;DHT22;6022;48.768;18.608;2023-02-01T04:00:33;2.80;99.90
11925;DHT22;6022;48.768;18.608;2023-02-01T04:03:01;2.90;99.90
11925;DHT22;6022;48.768;18.608;2023-02-01T04:05:31;2.90;99.90
11925;DHT22;6022;48.768;18.608;2023-02-01T04:07:58;3.00;99.90
11925;DHT22;6022;48.768;18.608;2023-02-01T04:10:26;2.90;99.90
11925;DHT22;6022;48.768;18.608;2023-02-01T04:12:53;2.90;99.90
11925;DHT22;6022;48.768;18.608;2023-02-01T04:15:20;3.00;99.90
11925;DHT22;6022;48.768;18.608;2023-02-01T04:17:48;3.10;99.90
11925;DHT22;6022;48.768;18.608;2023-02-01T04:20:15;2.90;99.90
11925;DHT22;6022;48.768;18.608;2023-02-01T04:22:43;2.80;99.90
11925;DHT22;6022;48.768;18.608;2023-02-01T04:25:10;2.80;99.90
11925;DHT22;6022;48.768;18.608;2023-02-01T04:27:40;2.90;99.90
11925;DHT22;6022;48.768;18.608;2023-02-01T04:30:10;2.90;99.90
11925;DHT22;6022;48.768;18.608;2023-02-01T04:32:38;3.20;99.90
11925;DHT22;6022;48.768;18.608;2023-02-01T04:35:07;2.90;99.90
11925;DHT22;6022;48.768;18.608;2023-02-01T04:37:34;2.90;99.90
11925;DHT22;6022;48.768;18.608;2023-02-01T04:40:02;2.90;99.90
11925;DHT22;6022;48.768;18.608;2023-02-01T04:42:30;2.90;99.90
11925;DHT22;6022;48.768;18.608;2023-02-01T04:44:57;2.90;99.90
11925;DHT22;6022;48.768;18.608;2023-02-01T04:47:24;3.30;99.90
11925;DHT22;6022;48.768;18.608;2023-02-01T04:49:53;2.90;99.90
11925;DHT22;6022;48.768;18.608;2023-02-01T04:52:20;3.00;99.90
11925;DHT22;6022;48.768;18.608;2023-02-01T04:54:47;2.80;99.90
11925;DHT22;6022;48.768;18.608;2023-02-01T04:57:14;2.90;99.90
11925;DHT22;6022;48.768;18.608;2023-02-01T04:59:41;2.90;99.90
11925;DHT22;6022;48.768;18.608;2023-02-01T05:02:08;2.90;99.90
11925;DHT22;6022;48.768;18.608;2023-02-01T05:04:36;2.90;99.90
11925;DHT22;6022;48.768;18.608;2023-02-01T05:07:03;2.90;99.90
11925;DHT22;6022;48.768;18.608;2023-02-01T05:09:30;2.80;99.90
11925;DHT22;6022;48.768;18.608;2023-02-01T05:11:57;2.70;99.90
11925;DHT22;6022;48.768;18.608;2023-02-01T05:14:43;2.80;99.90
11925;DHT22;6022;48.768;18.608;2023-02-01T05:17:10;2.60;99.90
11925;DHT22;6022;48.768;18.608;2023-02-01T05:19:37;2.50;99.90
11925;DHT22;6022;48.768;18.608;2023-02-01T05:22:04;2.70;99.90
11925;DHT22;6022;48.768;18.608;2023-02-01T05:24:31;2.40;99.90
11925;DHT22;6022;48.768;18.608;2023-02-01T05:26:58;2.40;99.90
11925;DHT22;6022;48.768;18.608;2023-02-01T05:29:25;2.70;99.90
11925;DHT22;6022;48.768;18.608;2023-02-01T05:31:53;2.30;99.90
11925;DHT22;6022;48.768;18.608;2023-02-01T05:34:20;2.70;99.90
11925;DHT22;6022;48.768;18.608;2023-02-01T05:36:47;2.50;99.90
11925;DHT22;6022;48.768;18.608;2023-02-01T05:39:14;2.40;99.90
11925;DHT22;6022;48.768;18.608;2023-02-01T05:41:42;2.50;99.90
11925;DHT22;6022;48.768;18.608;2023-02-01T05:44:10;3.30;99.90
11925;DHT22;6022;48.768;18.608;2023-02-01T05:46:38;2.60;99.90
11925;DHT22;6022;48.768;18.608;2023-02-01T05:49:05;2.60;99.90
11925;DHT22;6022;48.768;18.608;2023-02-01T05:51:32;3.40;99.90
11925;DHT22;6022;48.768;18.608;2023-02-01T05:54:00;3.20;99.90
11925;DHT22;6022;48.768;18.608;2023-02-01T05:56:27;2.20;99.90
11925;DHT22;6022;48.768;18.608;2023-02-01T05:58:54;3.20;99.90
11925;DHT22;6022;48.768;18.608;2023-02-01T06:01:22;2.70;99.90
11925;DHT22;6022;48.768;18.608;2023-02-01T06:03:49;2.60;99.90
11925;DHT22;6022;48.768;18.608;2023-02-01T06:06:17;2.60;99.90
11925;DHT22;6022;48.768;18.608;2023-02-01T06:08:45;2.60;99.90
11925;DHT22;6022;48.768;18.608;2023-02-01T06:11:13;2.60;99.90
11925;DHT22;6022;48.768;18.608;2023-02-01T06:13:58;2.50;99.90
11925;DHT22;6022;48.768;18.608;2023-02-01T06:16:26;2.50;99.90
11925;DHT22;6022;48.768;18.608;2023-02-01T06:18:54;2.40;99.90
11925;DHT22;6022;48.768;18.608;2023-02-01T06:21:22;2.20;99.90
11925;DHT22;6022;48.768;18.608;2023-02-01T06:23:53;2.60;99.90
11925;DHT22;6022;48.768;18.608;2023-02-01T06:26:22;2.20;99.90
11925;DHT22;6022;48.768;18.608;2023-02-01T06:28:49;2.60;99.90
11925;DHT22;6022;48.768;18.608;2023-02-01T06:31:16;2.30;99.90
11925;DHT22;6022;48.768;18.608;2023-02-01T06:33:44;2.50;99.90
11925;DHT22;6022;48.768;18.608;2023-02-01T06:36:14;2.60;99.90
11925;DHT22;6022;48.768;18.608;2023-02-01T06:38:42;2.60;99.90
11925;DHT22;6022;48.768;18.608;2023-02-01T06:41:10;2.70;99.90
11925;DHT22;6022;48.768;18.608;2023-02-01T06:43:37;2.70;99.90
11925;DHT22;6022;48.768;18.608;2023-02-01T06:46:08;2.30;99.90
11925;DHT22;6022;48.768;18.608;2023-02-01T06:48:39;2.60;99.90
11925;DHT22;6022;48.768;18.608;2023-02-01T06:51:18;2.80;99.90
11925;DHT22;6022;48.768;18.608;2023-02-01T06:53:55;2.70;99.90
11925;DHT22;6022;48.768;18.608;2023-02-01T06:56:23;2.70;99.90
11925;DHT22;6022;48.768;18.608;2023-02-01T06:58:51;2.70;99.90
11925;DHT22;6022;48.768;18.608;2023-02-01T07:01:21;2.80;99.90
11925;DHT22;6022;48.768;18.608;2023-02-01T07:03:49;2.90;99.90
11925;DHT22;6022;48.768;18.608;2023-02-01T07:06:18;3.20;99.90
11925;DHT22;6022;48.768;18.608;2023-02-01T07:08:46;2.70;99.90
11925;DHT22;6022;48.768;18.608;2023-02-01T07:11:15;3.00;99.90
11925;DHT22;6022;48.768;18.608;2023-02-01T07:13:43;2.80;99.90
11925;DHT22;6022;48.768;18.608;2023-02-01T07:16:16;3.20;99.90
11925;DHT22;6022;48.768;18.608;2023-02-01T07:18:46;3.40;99.90
11925;DHT22;6022;48.768;18.608;2023-02-01T07:21:14;3.40;99.90
11925;DHT22;6022;48.768;18.608;2023-02-01T07:23:41;3.50;99.90
11925;DHT22;6022;48.768;18.608;2023-02-01T07:26:11;3.40;99.90
11925;DHT22;6022;48.768;18.608;2023-02-01T07:28:41;3.50;99.90
11925;DHT22;6022;48.768;18.608;2023-02-01T07:31:11;3.50;99.90
11925;DHT22;6022;48.768;18.608;2023-02-01T07:33:44;3.20;99.90
11925;DHT22;6022;48.768;18.608;2023-02-01T07:36:14;3.60;99.90
11925;DHT22;6022;48.768;18.608;2023-02-01T07:39:08;3.50;99.90
11925;DHT22;6022;48.768;18.608;2023-02-01T07:41:35;3.50;99.90
11925;DHT22;6022;48.768;18.608;2023-02-01T07:44:03;3.60;99.90
11925;DHT22;6022;48.768;18.608;2023-02-01T07:46:30;3.80;99.90
11925;DHT22;6022;48.768;18.608;2023-02-01T07:49:00;3.60;99.90
11925;DHT22;6022;48.768;18.608;2023-02-01T07:51:27;3.50;99.90
11925;DHT22;6022;48.768;18.608;2023-02-01T07:53:54;3.60;99.90
11925;DHT22;6022;48.768;18.608;2023-02-01T07:56:22;3.60;99.90
11925;DHT22;6022;48.768;18.608;2023-02-01T07:58:50;3.70;99.90
11925;DHT22;6022;48.768;18.608;2023-02-01T08:01:21;3.60;99.90
11925;DHT22;6022;48.768;18.608;2023-02-01T08:03:58;4.10;99.90
11925;DHT22;6022;48.768;18.608;2023-02-01T08:06:28;3.90;99.90
11925;DHT22;6022;48.768;18.608;2023-02-01T08:08:58;4.00;99.90
11925;DHT22;6022;48.768;18.608;2023-02-01T08:11:26;4.00;99.90
11925;DHT22;6022;48.768;18.608;2023-02-01T08:13:54;3.80;99.90
11925;DHT22;6022;48.768;18.608;2023-02-01T08:16:22;3.70;99.90
11925;DHT22;6022;48.768;18.608;2023-02-01T08:18:51;3.50;99.90
11925;DHT22;6022;48.768;18.608;2023-02-01T08:21:21;3.60;99.90
11925;DHT22;6022;48.768;18.608;2023-02-01T08:23:50;3.60;99.90
11925;DHT22;6022;48.768;18.608;2023-02-01T08:28:51;3.70;99.90
11925;DHT22;6022;48.768;18.608;2023-02-01T08:31:22;3.60;99.90
11925;DHT22;6022;48.768;18.608;2023-02-01T08:33:55;3.70;99.90
11925;DHT22;6022;48.768;18.608;2023-02-01T08:36:27;3.70;99.90
11925;DHT22;6022;48.768;18.608;2023-02-01T08:41:29;3.80;99.90
11925;DHT22;6022;48.768;18.608;2023-02-01T08:46:25;4.30;99.90
11925;DHT22;6022;48.768;18.608;2023-02-01T08:48:52;3.90;99.90
11925;DHT22;6022;48.768;18.608;2023-02-01T08:51:21;3.90;99.90
11925;DHT22;6022;48.768;18.608;2023-02-01T08:53:50;3.90;99.90
11925;DHT22;6022;48.768;18.608;2023-02-01T08:56:18;3.80;99.90
11925;DHT22;6022;48.768;18.608;2023-02-01T08:58:46;3.90;99.90
11925;DHT22;6022;48.768;18.608;2023-02-01T09:01:15;3.90;99.90
11925;DHT22;6022;48.768;18.608;2023-02-01T09:03:44;4.00;99.90
11925;DHT22;6022;48.768;18.608;2023-02-01T09:06:14;4.20;99.90
11925;DHT22;6022;48.768;18.608;2023-02-01T09:08:42;4.10;99.90
11925;DHT22;6022;48.768;18.608;2023-02-01T09:11:16;4.00;99.90
11925;DHT22;6022;48.768;18.608;2023-02-01T09:13:49;4.10;99.90
11925;DHT22;6022;48.768;18.608;2023-02-01T09:16:17;4.00;99.90
11925;DHT22;6022;48.768;18.608;2023-02-01T09:18:44;4.20;99.90
11925;DHT22;6022;48.768;18.608;2023-02-01T09:21:32;3.90;99.90
11925;DHT22;6022;48.768;18.608;2023-02-01T09:23:59;4.20;99.90
11925;DHT22;6022;48.768;18.608;2023-02-01T09:26:27;4.10;99.90
11925;DHT22;6022;48.768;18.608;2023-02-01T09:29:06;4.10;99.90
11925;DHT22;6022;48.768;18.608;2023-02-01T09:31:41;4.40;99.90
11925;DHT22;6022;48.768;18.608;2023-02-01T09:34:23;4.10;99.90
11925;DHT22;6022;48.768;18.608;2023-02-01T09:36:50;4.30;99.90
11925;DHT22;6022;48.768;18.608;2023-02-01T09:39:17;4.30;99.90
11925;DHT22;6022;48.768;18.608;2023-02-01T09:42:04;4.20;99.90
11925;DHT22;6022;48.768;18.608;2023-02-01T09:47:32;4.10;99.90
11925;DHT22;6022;48.768;18.608;2023-02-01T09:50:13;3.90;99.90
11925;DHT22;6022;48.768;18.608;2023-02-01T09:55:45;4.00;99.90
11925;DHT22;6022;48.768;18.608;2023-02-01T09:58:59;4.40;99.90
11925;DHT22;6022;48.768;18.608;2023-02-01T10:01:51;4.50;99.90
11925;DHT22;6022;48.768;18.608;2023-02-01T10:04:19;4.50;99.90
11925;DHT22;6022;48.768;18.608;2023-02-01T10:06:58;4.40;99.90
11925;DHT22;6022;48.768;18.608;2023-02-01T10:09:32;4.10;99.90
11925;DHT22;6022;48.768;18.608;2023-02-01T10:12:42;4.50;99.90
11925;DHT22;6022;48.768;18.608;2023-02-01T10:15:48;4.60;99.90
11925;DHT22;6022;48.768;18.608;2023-02-01T10:18:33;4.40;99.90
11925;DHT22;6022;48.768;18.608;2023-02-01T10:24:38;4.50;99.90
11925;DHT22;6022;48.768;18.608;2023-02-01T10:27:21;4.50;99.90
11925;DHT22;6022;48.768;18.608;2023-02-01T10:30:17;4.50;99.90
11925;DHT22;6022;48.768;18.608;2023-02-01T10:32:41;4.80;99.90
11925;DHT22;6022;48.768;18.608;2023-02-01T10:35:16;4.50;99.90
11925;DHT22;6022;48.768;18.608;2023-02-01T10:38:00;4.50;99.90
11925;DHT22;6022;48.768;18.608;2023-02-01T10:40:29;4.70;99.90
11925;DHT22;6022;48.768;18.608;2023-02-01T10:43:01;4.70;99.90
11925;DHT22;6022;48.768;18.608;2023-02-01T10:45:31;4.60;99.90
11925;DHT22;6022;48.768;18.608;2023-02-01T10:48:02;4.70;99.90
11925;DHT22;6022;48.768;18.608;2023-02-01T10:53:59;4.50;99.90
11925;DHT22;6022;48.768;18.608;2023-02-01T10:56:37;4.50;99.90
11925;DHT22;6022;48.768;18.608;2023-02-01T10:59:06;4.60;99.90
11925;DHT22;6022;48.768;18.608;2023-02-01T11:01:47;4.60;99.90
11925;DHT22;6022;48.768;18.608;2023-02-01T11:04:18;4.60;99.90
11925;DHT22;6022;48.768;18.608;2023-02-01T11:09:50;4.40;99.90
11925;DHT22;6022;48.768;18.608;2023-02-01T11:12:37;4.50;99.90
11925;DHT22;6022;48.768;18.608;2023-02-01T11:15:22;4.40;99.90
11925;DHT22;6022;48.768;18.608;2023-02-01T11:17:53;4.40;99.90
11925;DHT22;6022;48.768;18.608;2023-02-01T11:20:35;4.40;99.90
11925;DHT22;6022;48.768;18.608;2023-02-01T11:23:16;4.20;99.90
11925;DHT22;6022;48.768;18.608;2023-02-01T11:25:58;4.10;99.90
11925;DHT22;6022;48.768;18.608;2023-02-01T11:28:35;4.10;99.90
11925;DHT22;6022;48.768;18.608;2023-02-01T11:31:12;3.90;99.90
11925;DHT22;6022;48.768;18.608;2023-02-01T11:33:50;4.00;99.90
11925;DHT22;6022;48.768;18.608;2023-02-01T11:36:24;4.10;99.90
11925;DHT22;6022;48.768;18.608;2023-02-01T11:42:15;4.00;99.90
11925;DHT22;6022;48.768;18.608;2023-02-01T11:44:45;3.80;99.90
11925;DHT22;6022;48.768;18.608;2023-02-01T11:47:39;3.80;99.90
11925;DHT22;6022;48.768;18.608;2023-02-01T11:50:25;3.70;99.90
11925;DHT22;6022;48.768;18.608;2023-02-01T11:56:05;3.80;99.90
11925;DHT22;6022;48.768;18.608;2023-02-01T12:01:46;3.60;99.90
11925;DHT22;6022;48.768;18.608;2023-02-01T12:21:58;2.90;99.90
11925;DHT22;6022;48.768;18.608;2023-02-01T12:24:52;2.90;99.90
11925;DHT22;6022;48.768;18.608;2023-02-01T12:38:43;3.30;99.90
11925;DHT22;6022;48.768;18.608;2023-02-01T12:41:25;3.00;99.90
11925;DHT22;6022;48.768;18.608;2023-02-01T12:43:56;3.00;99.90
11925;DHT22;6022;48.768;18.608;2023-02-01T12:46:52;3.00;99.90
11925;DHT22;6022;48.768;18.608;2023-02-01T12:49:54;3.00;99.90
11925;DHT22;6022;48.768;18.608;2023-02-01T12:52:39;3.20;99.90
11925;DHT22;6022;48.768;18.608;2023-02-01T12:57:56;3.20;99.90
11925;DHT22;6022;48.768;18.608;2023-02-01T13:00:36;3.20;99.90
11925;DHT22;6022;48.768;18.608;2023-02-01T13:11:45;2.90;99.90
11925;DHT22;6022;48.768;18.608;2023-02-01T13:14:36;3.30;99.90
11925;DHT22;6022;48.768;18.608;2023-02-01T13:17:28;3.30;99.90
11925;DHT22;6022;48.768;18.608;2023-02-01T13:22:49;3.20;99.90
11925;DHT22;6022;48.768;18.608;2023-02-01T13:25:40;3.00;99.90
11925;DHT22;6022;48.768;18.608;2023-02-01T13:40:47;2.80;99.90
11925;DHT22;6022;48.768;18.608;2023-02-01T13:43:32;2.90;99.90
11925;DHT22;6022;48.768;18.608;2023-02-01T13:46:09;2.90;99.90
11925;DHT22;6022;48.768;18.608;2023-02-01T13:51:52;1.70;99.90
11925;DHT22;6022;48.768;18.608;2023-02-01T13:54:37;2.80;99.90
11925;DHT22;6022;48.768;18.608;2023-02-01T14:18:57;2.70;99.90
11925;DHT22;6022;48.768;18.608;2023-02-01T14:21:30;2.60;99.90
11925;DHT22;6022;48.768;18.608;2023-02-01T14:24:21;2.60;99.90
11925;DHT22;6022;48.768;18.608;2023-02-01T14:26:56;2.60;99.90
11925;DHT22;6022;48.768;18.608;2023-02-01T14:29:32;2.70;99.90
11925;DHT22;6022;48.768;18.608;2023-02-01T14:32:23;2.70;99.90
11925;DHT22;6022;48.768;18.608;2023-02-01T14:35:00;2.80;99.90
11925;DHT22;6022;48.768;18.608;2023-02-01T14:37:32;2.80;99.90
11925;DHT22;6022;48.768;18.608;2023-02-01T14:47:50;2.90;99.90
11925;DHT22;6022;48.768;18.608;2023-02-01T14:56:07;2.70;99.90
11925;DHT22;6022;48.768;18.608;2023-02-01T15:01:29;3.00;99.90
11925;DHT22;6022;48.768;18.608;2023-02-01T15:06:45;2.60;99.90
11925;DHT22;6022;48.768;18.608;2023-02-01T15:14:43;2.60;99.90
11925;DHT22;6022;48.768;18.608;2023-02-01T15:19:59;2.30;99.90
11925;DHT22;6022;48.768;18.608;2023-02-01T15:22:31;2.40;99.90
11925;DHT22;6022;48.768;18.608;2023-02-01T15:25:02;2.30;99.90
11925;DHT22;6022;48.768;18.608;2023-02-01T15:27:32;2.70;99.90
11925;DHT22;6022;48.768;18.608;2023-02-01T15:30:08;2.70;99.90
11925;DHT22;6022;48.768;18.608;2023-02-01T15:32:46;2.40;99.90
11925;DHT22;6022;48.768;18.608;2023-02-01T15:46:35;2.80;99.90
11925;DHT22;6022;48.768;18.608;2023-02-01T15:49:27;2.60;99.90
11925;DHT22;6022;48.768;18.608;2023-02-01T15:51:59;2.80;99.90
11925;DHT22;6022;48.768;18.608;2023-02-01T15:54:43;2.70;99.90
11925;DHT22;6022;48.768;18.608;2023-02-01T15:57:24;2.70;99.90
11925;DHT22;6022;48.768;18.608;2023-02-01T16:00:18;2.90;99.90
11925;DHT22;6022;48.768;18.608;2023-02-01T16:03:00;2.80;99.90
11925;DHT22;6022;48.768;18.608;2023-02-01T16:10:40;3.00;99.90
11925;DHT22;6022;48.768;18.608;2023-02-01T16:13:09;3.10;99.90
11925;DHT22;6022;48.768;18.608;2023-02-01T16:15:36;3.00;99.90
11925;DHT22;6022;48.768;18.608;2023-02-01T16:18:05;2.90;99.90
11925;DHT22;6022;48.768;18.608;2023-02-01T16:20:36;3.00;99.90
11925;DHT22;6022;48.768;18.608;2023-02-01T16:23:06;3.00;99.90
11925;DHT22;6022;48.768;18.608;2023-02-01T16:25:35;3.50;99.90
11925;DHT22;6022;48.768;18.608;2023-02-01T16:28:03;3.20;99.90
11925;DHT22;6022;48.768;18.608;2023-02-01T16:30:36;3.10;99.90
11925;DHT22;6022;48.768;18.608;2023-02-01T16:33:11;3.40;99.90
11925;DHT22;6022;48.768;18.608;2023-02-01T16:35:46;3.10;99.90
11925;DHT22;6022;48.768;18.608;2023-02-01T16:38:16;3.20;99.90
11925;DHT22;6022;48.768;18.608;2023-02-01T16:40:49;3.40;99.90
11925;DHT22;6022;48.768;18.608;2023-02-01T16:43:22;3.10;99.90
11925;DHT22;6022;48.768;18.608;2023-02-01T16:45:53;3.50;99.90
11925;DHT22;6022;48.768;18.608;2023-02-01T16:48:28;3.20;99.90
11925;DHT22;6022;48.768;18.608;2023-02-01T16:51:07;3.40;99.90
11925;DHT22;6022;48.768;18.608;2023-02-01T16:53:37;3.10;99.90
11925;DHT22;6022;48.768;18.608;2023-02-01T16:56:22;3.40;99.90
11925;DHT22;6022;48.768;18.608;2023-02-01T16:58:59;3.00;99.90
11925;DHT22;6022;48.768;18.608;2023-02-01T17:01:28;3.30;99.90
11925;DHT22;6022;48.768;18.608;2023-02-01T17:03:55;2.60;99.90
11925;DHT22;6022;48.768;18.608;2023-02-01T17:06:25;3.20;99.90
11925;DHT22;6022;48.768;18.608;2023-02-01T17:08:56;2.90;99.90
11925;DHT22;6022;48.768;18.608;2023-02-01T17:11:25;2.90;99.90
11925;DHT22;6022;48.768;18.608;2023-02-01T17:13:54;2.80;99.90
11925;DHT22;6022;48.768;18.608;2023-02-01T17:16:28;2.90;99.90
11925;DHT22;6022;48.768;18.608;2023-02-01T17:18:59;2.90;99.90
11925;DHT22;6022;48.768;18.608;2023-02-01T17:21:40;2.90;99.90
11925;DHT22;6022;48.768;18.608;2023-02-01T17:24:14;2.80;99.90
11925;DHT22;6022;48.768;18.608;2023-02-01T17:26:43;2.80;99.90
11925;DHT22;6022;48.768;18.608;2023-02-01T17:29:12;2.90;99.90
11925;DHT22;6022;48.768;18.608;2023-02-01T17:31:43;3.10;99.90
11925;DHT22;6022;48.768;18.608;2023-02-01T17:34:13;2.70;99.90
11925;DHT22;6022;48.768;18.608;2023-02-01T17:36:42;2.70;99.90
11925;DHT22;6022;48.768;18.608;2023-02-01T17:39:10;3.30;99.90
11925;DHT22;6022;48.768;18.608;2023-02-01T17:41:58;3.30;99.90
11925;DHT22;6022;48.768;18.608;2023-02-01T17:44:26;3.20;99.90
11925;DHT22;6022;48.768;18.608;2023-02-01T17:46:54;3.00;99.90
11925;DHT22;6022;48.768;18.608;2023-02-01T17:49:23;3.10;99.90
11925;DHT22;6022;48.768;18.608;2023-02-01T17:51:50;3.00;99.90
11925;DHT22;6022;48.768;18.608;2023-02-01T17:54:17;3.00;99.90
11925;DHT22;6022;48.768;18.608;2023-02-01T17:56:45;2.90;99.90
11925;DHT22;6022;48.768;18.608;2023-02-01T17:59:16;3.30;99.90
11925;DHT22;6022;48.768;18.608;2023-02-01T18:01:46;3.30;99.90
11925;DHT22;6022;48.768;18.608;2023-02-01T18:04:33;2.80;99.90
11925;DHT22;6022;48.768;18.608;2023-02-01T18:07:15;3.30;99.90
11925;DHT22;6022;48.768;18.608;2023-02-01T18:09:44;2.90;99.90
11925;DHT22;6022;48.768;18.608;2023-02-01T18:12:19;3.00;99.90
11925;DHT22;6022;48.768;18.608;2023-02-01T18:14:49;3.10;99.90
11925;DHT22;6022;48.768;18.608;2023-02-01T18:17:19;3.10;99.90
11925;DHT22;6022;48.768;18.608;2023-02-01T18:19:46;3.20;99.90
11925;DHT22;6022;48.768;18.608;2023-02-01T18:22:20;3.40;99.90
11925;DHT22;6022;48.768;18.608;2023-02-01T18:24:50;3.20;99.90
11925;DHT22;6022;48.768;18.608;2023-02-01T18:27:20;3.60;99.90
11925;DHT22;6022;48.768;18.608;2023-02-01T18:30:02;3.40;99.90
11925;DHT22;6022;48.768;18.608;2023-02-01T18:32:46;3.40;99.90
11925;DHT22;6022;48.768;18.608;2023-02-01T18:35:29;3.20;99.90
11925;DHT22;6022;48.768;18.608;2023-02-01T18:38:04;3.40;99.90
11925;DHT22;6022;48.768;18.608;2023-02-01T18:40:47;3.40;99.90
11925;DHT22;6022;48.768;18.608;2023-02-01T18:43:19;3.40;99.90
11925;DHT22;6022;48.768;18.608;2023-02-01T18:45:52;3.40;99.90
11925;DHT22;6022;48.768;18.608;2023-02-01T18:48:27;3.10;99.90
11925;DHT22;6022;48.768;18.608;2023-02-01T18:50:54;3.00;99.90
11925;DHT22;6022;48.768;18.608;2023-02-01T18:53:23;3.30;99.90
11925;DHT22;6022;48.768;18.608;2023-02-01T18:55:57;3.20;99.90
11925;DHT22;6022;48.768;18.608;2023-02-01T18:58:39;3.40;99.90
11925;DHT22;6022;48.768;18.608;2023-02-01T19:01:17;3.30;99.90
11925;DHT22;6022;48.768;18.608;2023-02-01T19:03:47;3.50;99.90
11925;DHT22;6022;48.768;18.608;2023-02-01T19:06:31;3.40;99.90
11925;DHT22;6022;48.768;18.608;2023-02-01T19:09:05;3.40;99.90
11925;DHT22;6022;48.768;18.608;2023-02-01T19:11:36;3.30;99.90
11925;DHT22;6022;48.768;18.608;2023-02-01T19:14:04;3.40;99.90
11925;DHT22;6022;48.768;18.608;2023-02-01T19:16:31;3.40;99.90
11925;DHT22;6022;48.768;18.608;2023-02-01T19:18:59;3.50;99.90
11925;DHT22;6022;48.768;18.608;2023-02-01T19:21:27;3.40;99.90
11925;DHT22;6022;48.768;18.608;2023-02-01T19:23:54;3.60;99.90
11925;DHT22;6022;48.768;18.608;2023-02-01T19:26:21;3.50;99.90
11925;DHT22;6022;48.768;18.608;2023-02-01T19:28:48;3.40;99.90
11925;DHT22;6022;48.768;18.608;2023-02-01T19:31:16;3.30;99.90
11925;DHT22;6022;48.768;18.608;2023-02-01T19:33:43;3.40;99.90
11925;DHT22;6022;48.768;18.608;2023-02-01T19:36:12;3.60;99.90
11925;DHT22;6022;48.768;18.608;2023-02-01T19:38:40;3.60;99.90
11925;DHT22;6022;48.768;18.608;2023-02-01T19:41:21;3.60;99.90